createdAt,value
2023-04-21T00:00:07.946Z,71.89
2023-04-21T00:02:39.512Z,71.31
2023-04-21T00:05:13.793Z,71.67
2023-04-21T00:07:41.524Z,71.91
2023-04-21T00:10:10.166Z,71.85
2023-04-21T00:12:37.812Z,72.62
2023-04-21T00:15:06.080Z,72.08
2023-04-21T00:17:33.688Z,72.42
2023-04-21T00:20:00.664Z,72.79
2023-04-21T00:22:27.596Z,73.35
2023-04-21T00:24:54.520Z,72.93
2023-04-21T00:27:21.464Z,72.25
2023-04-21T00:29:48.450Z,72.48
2023-04-21T00:32:16.232Z,72.95
2023-04-21T00:34:43.196Z,73.17
2023-04-21T00:37:12.234Z,72.55
2023-04-21T00:39:39.836Z,73.14
2023-04-21T00:42:06.832Z,72.89
2023-04-21T00:44:35.705Z,72.68
2023-04-21T00:47:03.871Z,73.25
2023-04-21T00:49:30.991Z,73.08
2023-04-21T00:51:58.740Z,73.61
2023-04-21T00:54:26.832Z,73.97
2023-04-21T00:56:55.452Z,73.96
2023-04-21T00:59:22.377Z,73.25
2023-04-21T01:01:49.424Z,73.24
2023-04-21T01:04:16.406Z,73.44
2023-04-21T01:06:44.149Z,73.64
2023-04-21T01:09:13.725Z,73.99
2023-04-21T01:11:41.036Z,73.76
2023-04-21T01:14:08.104Z,73.50
2023-04-21T01:16:35.046Z,73.57
2023-04-21T01:19:02.122Z,73.27
2023-04-21T01:21:31.973Z,73.36
2023-04-21T01:24:01.437Z,73.06
2023-04-21T01:26:28.432Z,72.80
2023-04-21T01:28:57.215Z,73.14
2023-04-21T01:31:24.270Z,74.10
2023-04-21T01:33:51.290Z,74.27
2023-04-21T01:36:18.268Z,74.01
2023-04-21T01:38:45.327Z,73.94
2023-04-21T01:41:14.666Z,74.12
2023-04-21T01:43:41.915Z,74.01
2023-04-21T01:46:09.105Z,73.81
2023-04-21T01:48:38.835Z,73.50
2023-04-21T01:51:06.430Z,73.66
2023-04-21T01:53:33.404Z,73.62
2023-04-21T01:56:02.053Z,73.77
2023-04-21T01:58:31.210Z,74.14
2023-04-21T02:00:58.172Z,73.73
2023-04-21T02:03:25.228Z,74.03
2023-04-21T02:05:52.278Z,74.65
2023-04-21T02:08:19.284Z,74.11
2023-04-21T02:10:46.372Z,73.64
2023-04-21T02:13:13.296Z,73.87
2023-04-21T02:15:40.275Z,73.85
2023-04-21T02:18:08.306Z,74.03
2023-04-21T02:20:35.555Z,73.98
2023-04-21T02:23:02.613Z,73.75
2023-04-21T02:25:30.639Z,74.13
2023-04-21T02:27:57.567Z,74.25
2023-04-21T02:30:27.575Z,74.16
2023-04-21T02:32:54.689Z,74.49
2023-04-21T02:35:21.817Z,74.08
2023-04-21T02:37:50.880Z,74.26
2023-04-21T02:40:18.058Z,74.33
2023-04-21T02:42:45.173Z,74.31
2023-04-21T02:45:12.298Z,75.24
2023-04-21T02:47:39.305Z,74.17
2023-04-21T02:50:06.985Z,74.80
2023-04-21T02:52:38.073Z,74.01
2023-04-21T02:55:05.769Z,73.87
2023-04-21T02:57:32.765Z,73.84
2023-04-21T03:00:00.387Z,73.92
2023-04-21T03:02:27.479Z,73.70
2023-04-21T03:04:54.499Z,73.59
2023-04-21T03:07:21.583Z,74.09
2023-04-21T03:09:48.536Z,73.76
2023-04-21T03:12:15.648Z,74.43
2023-04-21T03:14:44.532Z,74.11
2023-04-21T03:17:11.462Z,73.90
2023-04-21T03:19:38.405Z,74.01
2023-04-21T03:22:06.379Z,74.38
2023-04-21T03:24:33.459Z,74.25
2023-04-21T03:27:01.767Z,74.13
2023-04-21T03:29:28.913Z,73.95
2023-04-21T03:31:55.959Z,74.09
2023-04-21T03:34:23.397Z,74.18
2023-04-21T03:36:50.320Z,74.36
2023-04-21T03:39:20.012Z,73.99
2023-04-21T03:41:48.795Z,74.28
2023-04-21T03:44:15.979Z,74.24
2023-04-21T03:46:42.919Z,74.55
2023-04-21T03:49:10.039Z,74.32
2023-04-21T03:51:36.981Z,74.97
2023-04-21T03:54:03.984Z,74.17
2023-04-21T03:56:30.925Z,74.12
2023-04-21T03:58:58.059Z,74.25
2023-04-21T04:01:24.997Z,74.05
2023-04-21T04:03:52.031Z,74.07
2023-04-21T04:06:19.068Z,74.04
2023-04-21T04:08:46.407Z,74.42
2023-04-21T04:11:13.380Z,74.30
2023-04-21T04:13:40.517Z,73.94
2023-04-21T04:16:07.873Z,74.25
2023-04-21T04:18:34.984Z,74.21
2023-04-21T04:21:08.561Z,74.12
2023-04-21T04:23:35.701Z,74.09
2023-04-21T04:26:05.420Z,74.14
2023-04-21T04:28:32.386Z,74.11
2023-04-21T04:31:00.579Z,74.96
2023-04-21T04:33:27.672Z,73.92
2023-04-21T04:35:54.734Z,74.04
2023-04-21T04:38:23.007Z,74.04
2023-04-21T04:40:57.652Z,73.64
2023-04-21T04:43:25.470Z,73.77
2023-04-21T04:45:52.509Z,74.13
2023-04-21T04:48:19.634Z,74.06
2023-04-21T04:50:46.698Z,73.72
2023-04-21T04:53:13.605Z,73.98
2023-04-21T04:55:40.571Z,73.89
2023-04-21T04:58:07.550Z,73.79
2023-04-21T05:00:34.747Z,73.80
2023-04-21T05:03:01.826Z,73.92
2023-04-21T05:05:29.028Z,73.88
2023-04-21T05:07:56.176Z,74.09
2023-04-21T05:10:23.558Z,73.82
2023-04-21T05:12:50.579Z,73.84
2023-04-21T05:15:18.364Z,73.97
2023-04-21T05:17:45.331Z,73.79
2023-04-21T05:20:12.413Z,73.85
2023-04-21T05:22:39.680Z,73.87
2023-04-21T05:25:07.879Z,73.61
2023-04-21T05:27:34.811Z,74.11
2023-04-21T05:30:01.839Z,74.17
2023-04-21T05:32:29.296Z,74.30
2023-04-21T05:34:56.605Z,73.93
2023-04-21T05:37:23.499Z,74.13
2023-04-21T05:39:51.295Z,73.90
2023-04-21T05:42:18.280Z,74.44
2023-04-21T05:44:45.353Z,74.37
2023-04-21T05:47:12.251Z,74.20
2023-04-21T05:49:39.158Z,73.81
2023-04-21T05:52:08.804Z,73.82
2023-04-21T05:54:35.760Z,73.67
2023-04-21T05:57:02.668Z,74.07
2023-04-21T05:59:29.571Z,73.91
2023-04-21T06:01:56.578Z,73.82
2023-04-21T06:04:23.907Z,74.74
2023-04-21T06:06:51.078Z,74.08
2023-04-21T06:09:19.014Z,74.13
2023-04-21T06:11:46.100Z,75.16
2023-04-21T06:14:13.164Z,74.82
2023-04-21T06:16:40.103Z,74.50
2023-04-21T06:19:07.074Z,74.94
2023-04-21T06:21:34.037Z,75.14
2023-04-21T06:24:00.985Z,75.46
2023-04-21T06:26:28.044Z,75.34
2023-04-21T06:28:54.970Z,75.55
2023-04-21T06:31:21.991Z,75.99
2023-04-21T06:33:48.971Z,76.01
2023-04-21T06:36:17.859Z,75.83
2023-04-21T06:38:45.093Z,75.57
2023-04-21T06:41:12.079Z,75.83
2023-04-21T06:43:39.014Z,76.48
2023-04-21T06:46:06.149Z,76.94
2023-04-21T06:48:33.049Z,76.33
2023-04-21T06:51:01.219Z,76.77
2023-04-21T06:53:28.187Z,77.56
2023-04-21T06:55:55.520Z,76.72
2023-04-21T06:58:22.475Z,77.88
2023-04-21T07:00:49.509Z,76.86
2023-04-21T07:03:16.778Z,76.64
2023-04-21T07:05:43.738Z,77.37
2023-04-21T07:08:10.723Z,76.81
2023-04-21T07:10:37.661Z,76.74
2023-04-21T07:13:04.679Z,76.63
2023-04-21T07:15:31.605Z,76.10
2023-04-21T07:17:59.126Z,76.23
2023-04-21T07:20:26.295Z,76.28
2023-04-21T07:22:53.288Z,76.37
2023-04-21T07:25:20.364Z,76.63
2023-04-21T07:27:47.558Z,76.19
2023-04-21T07:30:14.793Z,75.90
2023-04-21T07:32:42.305Z,76.27
2023-04-21T07:35:09.473Z,76.47
2023-04-21T07:37:36.437Z,77.47
2023-04-21T07:40:03.969Z,77.07
2023-04-21T07:42:30.928Z,77.55
2023-04-21T07:44:58.001Z,76.96
2023-04-21T07:47:25.075Z,77.46
2023-04-21T07:49:52.068Z,77.17
2023-04-21T07:52:18.991Z,77.14
2023-04-21T07:54:45.899Z,77.34
2023-04-21T07:57:12.822Z,77.38
2023-04-21T07:59:39.953Z,77.33
2023-04-21T08:02:07.714Z,77.82
2023-04-21T08:04:35.173Z,77.83
2023-04-21T08:07:02.932Z,77.32
2023-04-21T08:09:30.083Z,77.84
2023-04-21T08:11:57.943Z,77.91
2023-04-21T08:14:26.771Z,78.16
2023-04-21T08:16:56.158Z,77.90
2023-04-21T08:19:24.284Z,77.79
2023-04-21T08:21:51.294Z,78.30
2023-04-21T08:24:18.613Z,77.95
2023-04-21T08:26:45.898Z,77.67
2023-04-21T08:29:13.942Z,77.61
2023-04-21T08:31:40.965Z,77.56
2023-04-21T08:34:08.169Z,77.78
2023-04-21T08:36:35.223Z,77.60
2023-04-21T08:39:02.572Z,77.87
2023-04-21T08:41:29.543Z,77.66
2023-04-21T08:43:56.530Z,78.02
2023-04-21T08:46:23.976Z,78.45
2023-04-21T08:48:52.260Z,78.72
2023-04-21T08:51:24.482Z,78.72
2023-04-21T08:53:51.916Z,78.88
2023-04-21T08:56:20.019Z,78.67
2023-04-21T08:58:46.947Z,78.76
2023-04-21T09:01:13.986Z,78.91
2023-04-21T09:03:41.251Z,78.63
2023-04-21T09:06:10.213Z,78.42
2023-04-21T09:08:42.535Z,78.61
2023-04-21T09:11:14.968Z,78.50
2023-04-21T09:13:43.719Z,77.46
2023-04-21T09:16:21.082Z,77.81
2023-04-21T09:18:48.338Z,77.66
2023-04-21T09:21:18.966Z,77.64
2023-04-21T09:23:52.372Z,77.66
2023-04-21T09:26:22.942Z,77.24
2023-04-21T09:28:51.970Z,77.07
2023-04-21T09:31:24.884Z,76.16
2023-04-21T09:34:00.750Z,75.75
2023-04-21T09:36:31.172Z,76.77
2023-04-21T09:41:30.163Z,76.31
2023-04-21T09:44:01.240Z,76.48
2023-04-21T09:46:32.168Z,77.17
2023-04-21T09:49:01.515Z,77.07
2023-04-21T09:51:49.038Z,76.62
2023-04-21T09:54:29.681Z,77.00
2023-04-21T09:57:04.348Z,77.17
2023-04-21T09:59:38.126Z,77.06
2023-04-21T10:02:07.726Z,76.84
2023-04-21T10:04:37.299Z,76.95
2023-04-21T10:07:05.193Z,77.07
2023-04-21T10:09:40.669Z,76.83
2023-04-21T10:12:10.303Z,77.14
2023-04-21T10:14:37.361Z,76.71
2023-04-21T10:17:07.614Z,77.01
2023-04-21T10:19:40.020Z,74.93
2023-04-21T10:22:09.550Z,73.91
2023-04-21T10:24:42.058Z,73.84
2023-04-21T10:27:30.415Z,74.25
2023-04-21T10:29:59.010Z,74.27
2023-04-21T10:32:43.138Z,74.75
2023-04-21T10:35:23.940Z,72.98
2023-04-21T10:37:52.013Z,73.72
2023-04-21T10:40:43.157Z,73.04
2023-04-21T10:43:48.408Z,74.27
2023-04-21T10:46:53.450Z,75.25
2023-04-21T10:49:30.461Z,74.72
2023-04-21T10:52:03.021Z,75.53
2023-04-21T10:55:03.950Z,75.27
2023-04-21T10:57:32.620Z,77.19
2023-04-21T11:00:00.241Z,74.19
2023-04-21T11:02:27.520Z,73.99
2023-04-21T11:04:55.194Z,76.26
2023-04-21T11:07:25.935Z,75.98
2023-04-21T11:10:01.687Z,73.66
2023-04-21T11:12:39.955Z,75.44
2023-04-21T11:15:10.266Z,75.00
2023-04-21T11:17:43.216Z,76.62
2023-04-21T11:20:10.512Z,76.02
2023-04-21T11:22:38.700Z,75.67
2023-04-21T11:25:06.550Z,75.19
2023-04-21T11:27:33.536Z,74.07
2023-04-21T11:30:03.854Z,71.86
2023-04-21T11:32:31.068Z,72.43
2023-04-21T11:34:58.155Z,73.27
2023-04-21T11:37:27.669Z,72.70
2023-04-21T11:40:01.406Z,69.58
2023-04-21T11:42:28.923Z,69.62
2023-04-21T11:44:57.104Z,69.55
2023-04-21T11:47:26.854Z,70.22
2023-04-21T11:49:56.782Z,66.54
2023-04-21T11:52:35.973Z,67.51
2023-04-21T11:55:15.293Z,66.71
2023-04-21T11:57:42.631Z,66.50
2023-04-21T12:00:12.971Z,67.41
2023-04-21T12:02:40.056Z,67.70
2023-04-21T12:05:09.652Z,63.19
2023-04-21T12:07:46.233Z,65.28
2023-04-21T12:10:17.797Z,63.89
2023-04-21T12:12:45.719Z,61.41
2023-04-21T12:15:19.456Z,59.89
2023-04-21T12:17:52.245Z,61.79
2023-04-21T12:20:23.175Z,62.73
2023-04-21T12:22:50.775Z,61.65
2023-04-21T12:25:17.873Z,59.65
2023-04-21T12:27:53.343Z,62.20
2023-04-21T12:30:21.284Z,65.65
2023-04-21T12:32:48.680Z,66.49
2023-04-21T12:35:15.924Z,64.26
2023-04-21T12:37:42.954Z,64.58
2023-04-21T12:40:10.554Z,63.33
2023-04-21T12:42:38.314Z,60.77
2023-04-21T12:45:06.801Z,60.13
2023-04-21T12:47:35.151Z,63.00
2023-04-21T12:50:02.282Z,63.91
2023-04-21T12:52:29.286Z,63.47
2023-04-21T12:54:56.240Z,61.92
2023-04-21T12:57:23.201Z,63.94
2023-04-21T12:59:50.185Z,58.29
2023-04-21T13:02:17.216Z,59.85
2023-04-21T13:04:44.624Z,58.74
2023-04-21T13:07:11.846Z,60.78
2023-04-21T13:09:38.788Z,59.66
2023-04-21T13:12:05.956Z,62.20
2023-04-21T13:14:33.204Z,63.71
2023-04-21T13:17:00.302Z,59.05
2023-04-21T13:19:28.605Z,59.21
2023-04-21T13:21:56.314Z,61.17
2023-04-21T13:24:23.286Z,59.38
2023-04-21T13:26:50.245Z,60.69
2023-04-21T13:29:17.491Z,61.23
2023-04-21T13:31:44.440Z,58.76
2023-04-21T13:34:12.192Z,60.40
2023-04-21T13:36:39.167Z,62.65
2023-04-21T13:39:10.173Z,63.75
2023-04-21T13:41:37.419Z,61.33
2023-04-21T13:44:05.232Z,59.56
2023-04-21T13:46:32.579Z,60.50
2023-04-21T13:48:59.970Z,63.43
2023-04-21T13:51:27.186Z,57.84
2023-04-21T13:53:54.446Z,58.34
2023-04-21T13:56:21.758Z,61.63
2023-04-21T13:58:48.837Z,60.03
2023-04-21T14:01:16.558Z,58.25
2023-04-21T14:03:44.324Z,57.34
2023-04-21T14:06:11.349Z,57.92
2023-04-21T14:08:38.445Z,57.58
2023-04-21T14:11:06.367Z,61.67
2023-04-21T14:13:39.518Z,62.89
2023-04-21T14:16:12.133Z,56.00
2023-04-21T14:18:44.277Z,59.61
2023-04-21T14:21:14.148Z,61.03
2023-04-21T14:23:41.100Z,60.75
2023-04-21T14:26:08.032Z,59.02
2023-04-21T14:28:35.553Z,59.50
2023-04-21T14:31:02.607Z,58.17
2023-04-21T14:33:29.880Z,57.82
2023-04-21T14:35:56.967Z,55.87
2023-04-21T14:38:24.461Z,55.55
2023-04-21T14:40:54.517Z,57.71
2023-04-21T14:43:22.064Z,55.38
2023-04-21T14:45:49.207Z,58.84
2023-04-21T14:48:16.481Z,58.04
2023-04-21T14:50:43.593Z,60.19
2023-04-21T14:53:10.970Z,59.77
2023-04-21T14:55:37.965Z,57.88
2023-04-21T14:58:04.968Z,57.79
2023-04-21T15:00:32.543Z,59.83
2023-04-21T15:02:59.869Z,53.73
2023-04-21T15:05:27.075Z,56.49
2023-04-21T15:07:54.098Z,56.54
2023-04-21T15:10:21.113Z,57.39
2023-04-21T15:12:48.149Z,55.13
2023-04-21T15:15:15.160Z,56.88
2023-04-21T15:17:42.169Z,55.96
2023-04-21T15:20:10.197Z,54.65
2023-04-21T15:22:37.644Z,54.67
2023-04-21T15:25:05.739Z,56.20
2023-04-21T15:27:32.919Z,57.43
2023-04-21T15:29:59.975Z,53.56
2023-04-21T15:32:26.956Z,53.67
2023-04-21T15:34:53.902Z,53.82
2023-04-21T15:37:23.588Z,54.40
2023-04-21T15:39:52.577Z,55.11
2023-04-21T15:42:19.960Z,56.53
2023-04-21T15:44:47.146Z,56.09
2023-04-21T15:47:16.458Z,55.21
2023-04-21T15:49:43.680Z,55.96
2023-04-21T15:52:11.214Z,55.92
2023-04-21T15:54:38.573Z,56.73
2023-04-21T15:57:05.877Z,55.44
2023-04-21T15:59:32.880Z,55.46
2023-04-21T16:01:59.981Z,55.19
2023-04-21T16:04:27.132Z,55.26
2023-04-21T16:06:54.150Z,54.36
2023-04-21T16:09:21.551Z,54.55
2023-04-21T16:11:52.015Z,54.70
2023-04-21T16:14:19.021Z,56.71
2023-04-21T16:16:46.370Z,55.87
2023-04-21T16:19:13.641Z,55.17
2023-04-21T16:21:41.952Z,55.97
2023-04-21T16:24:09.227Z,56.04
2023-04-21T16:26:36.641Z,55.49
2023-04-21T16:29:03.826Z,55.36
2023-04-21T16:31:31.344Z,56.34
2023-04-21T16:34:00.057Z,56.30
2023-04-21T16:36:28.332Z,56.17
2023-04-21T16:38:58.884Z,55.02
2023-04-21T16:41:25.852Z,56.60
2023-04-21T16:43:52.858Z,54.97
2023-04-21T16:46:19.896Z,54.93
2023-04-21T16:48:46.903Z,54.77
2023-04-21T16:51:14.101Z,55.14
2023-04-21T16:53:41.991Z,54.97
2023-04-21T16:56:09.592Z,55.66
2023-04-21T16:58:37.536Z,55.36
2023-04-21T17:01:04.957Z,55.83
2023-04-21T17:03:32.104Z,55.60
2023-04-21T17:05:59.231Z,56.20
2023-04-21T17:08:26.167Z,56.23
2023-04-21T17:10:55.222Z,56.08
2023-04-21T17:13:22.183Z,56.22
2023-04-21T17:15:49.117Z,56.51
2023-04-21T17:18:16.168Z,56.31
2023-04-21T17:20:43.412Z,56.50
2023-04-21T17:23:10.460Z,56.69
2023-04-21T17:25:38.167Z,56.73
2023-04-21T17:28:05.897Z,56.86
2023-04-21T17:30:35.553Z,56.76
2023-04-21T17:33:15.274Z,56.84
2023-04-21T17:35:55.729Z,56.99
2023-04-21T17:38:29.506Z,56.90
2023-04-21T17:40:56.633Z,56.79
2023-04-21T17:43:24.095Z,56.73
2023-04-21T17:45:51.702Z,57.13
2023-04-21T17:48:19.029Z,57.00
2023-04-21T17:50:45.999Z,56.85
2023-04-21T17:53:12.994Z,56.91
2023-04-21T17:55:40.263Z,57.33
2023-04-21T17:58:09.398Z,57.16
2023-04-21T18:00:38.765Z,57.18
2023-04-21T18:03:05.910Z,57.33
2023-04-21T18:05:33.622Z,57.51
2023-04-21T18:08:00.788Z,57.75
2023-04-21T18:10:29.754Z,57.89
2023-04-21T18:12:57.819Z,57.89
2023-04-21T18:15:24.791Z,57.94
2023-04-21T18:17:52.983Z,58.27
2023-04-21T18:20:20.427Z,58.30
2023-04-21T18:22:48.522Z,58.70
2023-04-21T18:25:17.383Z,58.29
2023-04-21T18:27:47.259Z,58.52
2023-04-21T18:30:14.417Z,60.63
2023-04-21T18:32:41.512Z,61.62
2023-04-21T18:35:08.768Z,63.80
2023-04-21T18:37:35.842Z,64.43
2023-04-21T18:40:02.848Z,65.31
2023-04-21T18:42:29.767Z,67.52
2023-04-21T18:44:58.439Z,64.21
2023-04-21T18:47:26.089Z,64.16
2023-04-21T18:49:53.151Z,64.59
2023-04-21T18:52:20.113Z,64.46
2023-04-21T18:54:47.052Z,62.53
2023-04-21T18:57:13.970Z,63.60
2023-04-21T18:59:41.122Z,62.47
2023-04-21T19:02:12.643Z,61.56
2023-04-21T19:04:39.954Z,61.75
2023-04-21T19:07:09.907Z,61.23
2023-04-21T19:09:37.638Z,61.60
2023-04-21T19:12:05.292Z,61.64
2023-04-21T19:14:42.515Z,61.68
2023-04-21T19:17:09.596Z,61.76
2023-04-21T19:19:36.960Z,61.81
2023-04-21T19:22:04.224Z,61.94
2023-04-21T19:24:31.472Z,62.69
2023-04-21T19:26:58.789Z,63.18
2023-04-21T19:29:25.812Z,61.74
2023-04-21T19:31:52.988Z,61.66
2023-04-21T19:34:20.528Z,62.62
2023-04-21T19:36:48.708Z,62.07
2023-04-21T19:39:15.708Z,63.15
2023-04-21T19:41:42.926Z,63.62
2023-04-21T19:44:09.913Z,62.55
2023-04-21T19:46:37.070Z,63.62
2023-04-21T19:49:04.092Z,65.61
2023-04-21T19:51:31.048Z,63.79
2023-04-21T19:54:10.134Z,63.14
2023-04-21T19:56:38.427Z,65.70
2023-04-21T19:59:05.709Z,65.07
2023-04-21T20:01:33.710Z,63.09
2023-04-21T20:04:01.022Z,63.87
2023-04-21T20:06:28.621Z,65.57
2023-04-21T20:08:56.093Z,65.18
2023-04-21T20:11:23.341Z,64.49
2023-04-21T20:13:50.789Z,66.88
2023-04-21T20:16:18.170Z,66.37
2023-04-21T20:18:45.407Z,65.85
2023-04-21T20:21:12.472Z,64.95
2023-04-21T20:23:39.404Z,66.53
2023-04-21T20:26:06.521Z,65.06
2023-04-21T20:28:33.517Z,64.54
2023-04-21T20:31:00.882Z,64.28
2023-04-21T20:33:28.161Z,64.64
2023-04-21T20:35:55.698Z,64.70
2023-04-21T20:38:26.450Z,65.08
2023-04-21T20:40:53.588Z,64.45
2023-04-21T20:43:21.285Z,64.18
2023-04-21T20:45:48.749Z,65.15
2023-04-21T20:48:15.796Z,64.10
2023-04-21T20:50:44.730Z,64.59
2023-04-21T20:53:12.962Z,64.94
2023-04-21T20:55:40.055Z,64.68
2023-04-21T20:58:07.005Z,64.20
2023-04-21T21:00:34.769Z,64.38
2023-04-21T21:03:02.428Z,64.27
2023-04-21T21:05:30.335Z,64.80
2023-04-21T21:07:57.546Z,65.38
2023-04-21T21:10:25.662Z,64.76
2023-04-21T21:12:52.620Z,65.07
2023-04-21T21:15:20.015Z,65.09
2023-04-21T21:17:47.145Z,65.25
2023-04-21T21:20:14.280Z,64.87
2023-04-21T21:22:43.095Z,65.36
2023-04-21T21:25:10.558Z,65.21
2023-04-21T21:27:37.499Z,66.66
2023-04-21T21:30:05.733Z,67.21
2023-04-21T21:32:33.421Z,67.17
2023-04-21T21:35:00.361Z,67.84
2023-04-21T21:37:27.401Z,67.92
2023-04-21T21:39:55.484Z,68.00
2023-04-21T21:42:22.723Z,67.75
2023-04-21T21:44:49.771Z,67.66
2023-04-21T21:47:18.071Z,67.52
2023-04-21T21:49:45.427Z,68.15
2023-04-21T21:52:14.896Z,68.55
2023-04-21T21:54:42.053Z,68.30
2023-04-21T21:57:09.355Z,69.02
2023-04-21T21:59:36.713Z,69.48
2023-04-21T22:02:04.261Z,69.39
2023-04-21T22:04:31.990Z,69.10
2023-04-21T22:06:58.971Z,68.97
2023-04-21T22:09:26.039Z,69.34
2023-04-21T22:11:54.905Z,69.96
2023-04-21T22:14:23.803Z,69.39
2023-04-21T22:16:52.402Z,70.16
2023-04-21T22:19:20.334Z,69.90
2023-04-21T22:21:47.992Z,70.14
2023-04-21T22:24:15.090Z,69.44
2023-04-21T22:26:43.576Z,69.85
2023-04-21T22:29:10.534Z,70.53
2023-04-21T22:31:38.084Z,69.62
2023-04-21T22:34:05.702Z,70.93
2023-04-21T22:36:32.812Z,70.79
2023-04-21T22:38:59.799Z,70.19
2023-04-21T22:41:27.494Z,70.50
2023-04-21T22:43:54.676Z,69.75
2023-04-21T22:46:21.701Z,70.46
2023-04-21T22:48:51.050Z,70.72
2023-04-21T22:51:21.060Z,71.12
2023-04-21T22:53:48.073Z,70.26
2023-04-21T22:56:15.223Z,70.43
2023-04-21T22:58:42.947Z,70.41
2023-04-21T23:01:09.980Z,70.06
2023-04-21T23:03:37.123Z,70.04
2023-04-21T23:06:04.399Z,70.32
2023-04-21T23:08:31.452Z,70.14
2023-04-21T23:10:58.452Z,70.42
2023-04-21T23:13:25.739Z,69.82
2023-04-21T23:15:52.663Z,70.61
2023-04-21T23:18:19.620Z,70.23
2023-04-21T23:20:46.601Z,70.37
2023-04-21T23:23:13.559Z,70.24
2023-04-21T23:25:40.679Z,69.72
2023-04-21T23:28:07.649Z,69.55
2023-04-21T23:30:34.778Z,69.34
2023-04-21T23:33:01.897Z,69.44
2023-04-21T23:35:28.992Z,69.12
2023-04-21T23:37:56.107Z,68.88
2023-04-21T23:40:23.336Z,68.84
2023-04-21T23:42:50.472Z,68.71
2023-04-21T23:45:17.503Z,68.76
2023-04-21T23:47:45.537Z,68.33
2023-04-21T23:50:12.882Z,68.70
2023-04-21T23:52:42.008Z,68.66
2023-04-21T23:55:11.794Z,68.24
2023-04-21T23:57:38.903Z,68.02
